Time;durP1;ratioP1;P1;durP2;ratioP2;P2;SDS_P1;SDS_P2;PMS_P1;PMS_P2;Temp;Humidity;BMP_temperature;BMP_pressure;BME280_temperature;BME280_humidity;BME280_pressure;Samples;Min_cycle;Max_cycle;Signal;HPM_P1;HPM_P2
2021/10/19 00:00:08;;;;;;;10.68;4.78;;;;;;;;;;5075981;28;20063;-57
2021/10/19 00:02:33;;;;;;;10.40;5.07;;;;;;;;;;5074745;28;20032;-58
2021/10/19 00:04:59;;;;;;;11.25;4.13;;;;;;;;;;5080404;28;20380;-60
2021/10/19 00:07:25;;;;;;;11.85;4.85;;;;;;;;;;5059880;28;20415;-58
2021/10/19 00:09:51;;;;;;;17.92;5.25;;;;;;;;;;5071934;28;20039;-58
2021/10/19 00:12:16;;;;;;;15.48;4.35;;;;;;;;;;5052552;28;20505;-58
2021/10/19 00:14:42;;;;;;;10.80;3.92;;;;;;;;;;5079166;28;20450;-58
2021/10/19 00:17:09;;;;;;;10.68;4.25;;;;;;;;;;5076208;28;20028;-58
2021/10/19 00:19:34;;;;;;;10.75;4.15;;;;;;;;;;5075090;28;20044;-58
2021/10/19 00:22:00;;;;;;;11.88;4.63;;;;;;;;;;5078956;28;20042;-57
2021/10/19 00:24:25;;;;;;;11.80;3.95;;;;;;;;;;5077388;28;20032;-58
2021/10/19 00:26:50;;;;;;;10.95;4.03;;;;;;;;;;5075901;28;20040;-58
2021/10/19 00:29:16;;;;;;;10.18;3.58;;;;;;;;;;5072761;28;20042;-58
2021/10/19 00:31:41;;;;;;;9.90;4.45;;;;;;;;;;5074827;28;20029;-58
2021/10/19 00:34:07;;;;;;;11.40;4.15;;;;;;;;;;5070965;28;20036;-58
2021/10/19 00:36:33;;;;;;;8.85;4.15;;;;;;;;;;5078941;28;20035;-58
2021/10/19 00:38:58;;;;;;;11.55;4.43;;;;;;;;;;5075765;28;20165;-58
2021/10/19 00:41:24;;;;;;;10.50;4.00;;;;;;;;;;5075399;28;20035;-59
2021/10/19 00:43:51;;;;;;;11.85;4.20;;;;;;;;;;5073588;28;20046;-58
2021/10/19 00:46:17;;;;;;;10.40;3.95;;;;;;;;;;5056517;28;20423;-58
2021/10/19 00:48:46;;;;;;;10.82;4.03;;;;;;;;;;5072686;28;20043;-58
2021/10/19 00:51:13;;;;;;;8.82;4.07;;;;;;;;;;5077296;28;20032;-58
2021/10/19 00:53:39;;;;;;;14.63;5.25;;;;;;;;;;5052974;28;20459;-58
2021/10/19 00:56:07;;;;;;;10.30;4.15;;;;;;;;;;5057017;28;20086;-58
2021/10/19 00:58:32;;;;;;;13.60;4.40;;;;;;;;;;5075413;28;20082;-58
2021/10/19 01:00:58;;;;;;;10.48;4.25;;;;;;;;;;5073843;28;20044;-58
2021/10/19 01:03:23;;;;;;;10.82;3.55;;;;;;;;;;5074759;28;20024;-58
2021/10/19 01:05:49;;;;;;;9.20;3.83;;;;;;;;;;5073678;28;20032;-57
2021/10/19 01:08:15;;;;;;;8.82;3.33;;;;;;;;;;5071159;28;20427;-58
2021/10/19 01:10:43;;;;;;;15.80;4.70;;;;;;;;;;5075285;28;20483;-58
2021/10/19 01:13:09;;;;;;;12.52;3.67;;;;;;;;;;5072980;28;20063;-59
2021/10/19 01:15:34;;;;;;;8.93;4.88;;;;;;;;;;5075246;28;20059;-58
2021/10/19 01:18:00;;;;;;;9.52;4.05;;;;;;;;;;5073599;28;20036;-58
2021/10/19 01:20:32;;;;;;;9.07;3.75;;;;;;;;;;5075413;28;20055;-58
2021/10/19 01:22:58;;;;;;;13.10;4.60;;;;;;;;;;5074069;28;20023;-58
2021/10/19 01:25:26;;;;;;;11.25;3.75;;;;;;;;;;5058622;28;20093;-58
2021/10/19 01:27:58;;;;;;;8.55;4.03;;;;;;;;;;5077488;28;20807;-58
2021/10/19 01:30:24;;;;;;;7.55;3.97;;;;;;;;;;5073610;28;20035;-58
2021/10/19 01:32:51;;;;;;;7.78;3.55;;;;;;;;;;5072370;28;20039;-58
2021/10/19 01:35:17;;;;;;;17.67;4.40;;;;;;;;;;5071099;28;20032;-58
2021/10/19 01:37:43;;;;;;;9.73;3.97;;;;;;;;;;5075079;28;20032;-58
2021/10/19 01:40:11;;;;;;;13.45;3.60;;;;;;;;;;5072538;28;20038;-58
2021/10/19 01:42:38;;;;;;;9.25;3.80;;;;;;;;;;5077371;28;20032;-58
2021/10/19 01:45:10;;;;;;;8.40;3.75;;;;;;;;;;5072651;28;20044;-58
2021/10/19 01:47:35;;;;;;;;;;;;;;;;;;5076544;28;20063;-58
2021/10/19 01:50:01;;;;;;;7.22;3.67;;;;;;;;;;5072754;28;20410;-58
2021/10/19 01:52:26;;;;;;;15.07;3.45;;;;;;;;;;5072078;28;20029;-58
2021/10/19 01:54:52;;;;;;;10.05;3.90;;;;;;;;;;5069848;28;20479;-58
2021/10/19 01:57:17;;;;;;;9.80;3.67;;;;;;;;;;5076267;28;20455;-58
2021/10/19 01:59:43;;;;;;;12.52;4.28;;;;;;;;;;5078453;28;20035;-58
2021/10/19 02:02:08;;;;;;;9.25;4.45;;;;;;;;;;5054020;28;20028;-58
2021/10/19 02:04:34;;;;;;;7.28;3.35;;;;;;;;;;5072206;28;20020;-58
2021/10/19 02:06:59;;;;;;;10.98;3.55;;;;;;;;;;5076438;28;20146;-58
2021/10/19 02:09:25;;;;;;;7.20;3.15;;;;;;;;;;5070138;28;20035;-58
2021/10/19 02:11:50;;;;;;;13.18;3.67;;;;;;;;;;5072247;28;20028;-58
2021/10/19 02:14:15;;;;;;;10.80;3.33;;;;;;;;;;5076874;28;20037;-58
2021/10/19 02:16:41;;;;;;;10.02;3.63;;;;;;;;;;5068406;28;20379;-58
2021/10/19 02:19:06;;;;;;;6.93;3.53;;;;;;;;;;5070580;28;20036;-58
2021/10/19 02:21:32;;;;;;;13.20;3.53;;;;;;;;;;5075840;28;20491;-58
2021/10/19 02:23:57;;;;;;;8.18;3.75;;;;;;;;;;5081417;28;20032;-58
2021/10/19 02:26:23;;;;;;;12.73;3.45;;;;;;;;;;5065825;28;20397;-58
2021/10/19 02:28:48;;;;;;;12.32;3.72;;;;;;;;;;5076630;28;20060;-58
2021/10/19 02:31:14;;;;;;;11.68;3.30;;;;;;;;;;5079791;28;20033;-58
2021/10/19 02:33:39;;;;;;;8.05;3.55;;;;;;;;;;5076224;28;20028;-58
2021/10/19 02:36:05;;;;;;;8.60;3.50;;;;;;;;;;5075034;28;20040;-58
2021/10/19 02:38:30;;;;;;;8.80;3.22;;;;;;;;;;5079950;28;20035;-58
2021/10/19 02:40:56;;;;;;;11.45;3.42;;;;;;;;;;5077464;28;20032;-58
2021/10/19 02:43:21;;;;;;;10.85;3.30;;;;;;;;;;5073730;28;20480;-58
2021/10/19 02:45:47;;;;;;;8.60;3.40;;;;;;;;;;5073469;28;20109;-58
2021/10/19 02:48:12;;;;;;;11.15;3.30;;;;;;;;;;5076827;28;20033;-58
2021/10/19 02:50:38;;;;;;;10.90;3.17;;;;;;;;;;5065159;28;20027;-58
2021/10/19 02:53:03;;;;;;;9.45;3.40;;;;;;;;;;5062350;28;20032;-58
2021/10/19 02:55:29;;;;;;;8.82;2.88;;;;;;;;;;5078418;28;20080;-58
2021/10/19 02:57:54;;;;;;;8.60;3.78;;;;;;;;;;5074861;28;20377;-58
2021/10/19 03:00:20;;;;;;;9.90;3.20;;;;;;;;;;5077741;28;20284;-58
2021/10/19 03:02:46;;;;;;;10.30;3.28;;;;;;;;;;5076445;28;20115;-58
2021/10/19 03:05:12;;;;;;;6.95;3.15;;;;;;;;;;5076146;28;20499;-58
2021/10/19 03:07:37;;;;;;;6.07;3.10;;;;;;;;;;5079016;28;20104;-58
2021/10/19 03:10:04;;;;;;;13.10;2.72;;;;;;;;;;5071196;28;21486;-58
2021/10/19 03:12:29;;;;;;;7.25;3.13;;;;;;;;;;5078424;28;20402;-58
2021/10/19 03:14:55;;;;;;;7.20;2.78;;;;;;;;;;5074089;28;20039;-58
2021/10/19 03:17:21;;;;;;;12.65;3.05;;;;;;;;;;5077604;28;20116;-58
2021/10/19 03:19:46;;;;;;;13.57;3.40;;;;;;;;;;5077171;28;20039;-58
2021/10/19 03:22:12;;;;;;;10.32;2.83;;;;;;;;;;5073013;28;20025;-57
2021/10/19 03:24:37;;;;;;;15.25;2.80;;;;;;;;;;5071582;28;20028;-58
2021/10/19 03:27:03;;;;;;;10.20;3.00;;;;;;;;;;5075342;28;20396;-58
2021/10/19 03:29:29;;;;;;;10.18;3.47;;;;;;;;;;5071297;28;20089;-58
2021/10/19 03:31:54;;;;;;;8.43;3.33;;;;;;;;;;5075766;28;20029;-57
2021/10/19 03:34:20;;;;;;;6.13;2.22;;;;;;;;;;5074929;28;20044;-57
2021/10/19 03:36:45;;;;;;;6.47;2.40;;;;;;;;;;5079464;28;20505;-58
2021/10/19 03:39:11;;;;;;;7.47;2.05;;;;;;;;;;5074115;28;20582;-58
2021/10/19 03:41:36;;;;;;;6.43;1.95;;;;;;;;;;5077597;28;20036;-58
2021/10/19 03:44:02;;;;;;;11.52;2.85;;;;;;;;;;5074508;28;20039;-57
2021/10/19 03:46:27;;;;;;;4.88;2.22;;;;;;;;;;5072419;28;20053;-56
2021/10/19 03:48:53;;;;;;;6.93;2.03;;;;;;;;;;5074868;28;20047;-58
2021/10/19 03:51:18;;;;;;;6.47;1.40;;;;;;;;;;5074505;28;20074;-57
2021/10/19 03:53:43;;;;;;;9.50;1.40;;;;;;;;;;5075078;28;20482;-57
2021/10/19 03:56:09;;;;;;;5.03;1.10;;;;;;;;;;5078868;28;20062;-58
2021/10/19 03:58:35;;;;;;;4.45;1.17;;;;;;;;;;5071730;28;20044;-58
2021/10/19 04:01:00;;;;;;;5.90;1.30;;;;;;;;;;5069928;28;20032;-57
2021/10/19 04:03:26;;;;;;;6.15;1.05;;;;;;;;;;5077861;28;20516;-58
2021/10/19 04:05:52;;;;;;;3.17;0.95;;;;;;;;;;5076825;28;20039;-57
2021/10/19 04:08:18;;;;;;;3.33;1.10;;;;;;;;;;5057665;28;20071;-57
2021/10/19 04:10:43;;;;;;;2.33;0.60;;;;;;;;;;5075277;28;20077;-57
2021/10/19 04:13:09;;;;;;;3.05;0.57;;;;;;;;;;5075928;28;20450;-57
2021/10/19 04:15:35;;;;;;;4.53;0.60;;;;;;;;;;5073962;28;20036;-57
2021/10/19 04:18:00;;;;;;;2.03;0.43;;;;;;;;;;5072890;28;20032;-57
2021/10/19 04:20:26;;;;;;;2.22;0.45;;;;;;;;;;5072225;28;20020;-58
2021/10/19 04:22:51;;;;;;;2.38;0.65;;;;;;;;;;5072948;28;20047;-57
2021/10/19 04:25:17;;;;;;;1.17;0.40;;;;;;;;;;5071545;28;20040;-58
2021/10/19 04:27:43;;;;;;;6.45;0.85;;;;;;;;;;5073266;28;20048;-57
2021/10/19 04:30:09;;;;;;;1.83;0.30;;;;;;;;;;5075093;28;20039;-58
2021/10/19 04:32:35;;;;;;;1.15;0.50;;;;;;;;;;5070367;28;20487;-58
2021/10/19 04:35:00;;;;;;;0.57;0.40;;;;;;;;;;5059237;28;20043;-58
2021/10/19 04:37:26;;;;;;;2.40;0.60;;;;;;;;;;5081450;28;20033;-57
2021/10/19 04:39:51;;;;;;;3.50;0.60;;;;;;;;;;5072570;28;20398;-57
2021/10/19 04:42:17;;;;;;;2.17;0.50;;;;;;;;;;5061803;28;20090;-57
2021/10/19 04:44:44;;;;;;;3.58;0.90;;;;;;;;;;5071526;28;20506;-57
2021/10/19 04:47:10;;;;;;;1.95;0.40;;;;;;;;;;5072950;28;20036;-58
2021/10/19 04:49:38;;;;;;;4.18;0.52;;;;;;;;;;5074151;28;20430;-59
2021/10/19 04:52:04;;;;;;;4.93;0.50;;;;;;;;;;5072535;28;20115;-59
2021/10/19 04:54:29;;;;;;;1.27;0.30;;;;;;;;;;5072648;28;20036;-59
2021/10/19 04:56:55;;;;;;;1.88;0.40;;;;;;;;;;5076134;28;20028;-62
2021/10/19 04:59:20;;;;;;;2.78;0.45;;;;;;;;;;5071286;28;20032;-58
2021/10/19 05:01:46;;;;;;;6.95;0.50;;;;;;;;;;5076387;28;20117;-59
2021/10/19 05:04:15;;;;;;;1.63;0.40;;;;;;;;;;5075246;28;20486;-58
2021/10/19 05:06:44;;;;;;;4.78;0.30;;;;;;;;;;5077637;28;20040;-58
2021/10/19 05:09:09;;;;;;;1.10;0.30;;;;;;;;;;5055581;28;20033;-58
2021/10/19 05:11:35;;;;;;;2.28;0.30;;;;;;;;;;5059516;28;20076;-59
2021/10/19 05:14:00;;;;;;;2.35;0.40;;;;;;;;;;5071696;28;20107;-57
2021/10/19 05:16:26;;;;;;;1.48;0.40;;;;;;;;;;5077805;28;20486;-58
2021/10/19 05:18:52;;;;;;;1.67;0.20;;;;;;;;;;5071059;28;20427;-58
2021/10/19 05:21:17;;;;;;;2.67;0.40;;;;;;;;;;5075658;28;20487;-59
2021/10/19 05:23:42;;;;;;;2.92;0.22;;;;;;;;;;5072862;28;20411;-59
2021/10/19 05:26:09;;;;;;;1.35;0.32;;;;;;;;;;5075636;28;20040;-59
2021/10/19 05:28:35;;;;;;;6.07;0.30;;;;;;;;;;5073364;28;20039;-59
2021/10/19 05:31:00;;;;;;;3.67;0.30;;;;;;;;;;5075242;28;20082;-59
2021/10/19 05:33:26;;;;;;;3.80;0.30;;;;;;;;;;5070812;28;20320;-58
2021/10/19 05:35:52;;;;;;;2.00;0.47;;;;;;;;;;5073090;28;20142;-58
2021/10/19 05:38:17;;;;;;;1.52;0.50;;;;;;;;;;5068023;28;20029;-57
2021/10/19 05:40:43;;;;;;;0.30;0.20;;;;;;;;;;5080412;28;20099;-59
2021/10/19 05:43:08;;;;;;;1.08;0.30;;;;;;;;;;5076092;28;20028;-59
2021/10/19 05:45:34;;;;;;;0.55;0.20;;;;;;;;;;5075766;28;20060;-59
2021/10/19 05:47:59;;;;;;;0.77;0.20;;;;;;;;;;5077393;28;20032;-58
2021/10/19 05:50:25;;;;;;;1.15;0.10;;;;;;;;;;5076441;28;20028;-59
2021/10/19 05:52:50;;;;;;;6.30;0.40;;;;;;;;;;5083358;28;20031;-58
2021/10/19 05:55:16;;;;;;;0.52;0.30;;;;;;;;;;5080974;28;20035;-58
2021/10/19 05:57:41;;;;;;;0.98;0.88;;;;;;;;;;5076036;28;20121;-58
2021/10/19 06:00:08;;;;;;;2.95;0.73;;;;;;;;;;5073057;28;20123;-58
2021/10/19 06:02:33;;;;;;;2.20;0.35;;;;;;;;;;5071592;28;20036;-58
2021/10/19 06:04:59;;;;;;;1.35;0.43;;;;;;;;;;5078245;28;20062;-59
2021/10/19 06:07:24;;;;;;;2.35;0.40;;;;;;;;;;5076655;28;20428;-58
2021/10/19 06:09:50;;;;;;;0.47;0.32;;;;;;;;;;5075121;28;20584;-58
2021/10/19 06:12:16;;;;;;;1.08;0.25;;;;;;;;;;5077051;28;20047;-58
2021/10/19 06:14:41;;;;;;;3.30;0.47;;;;;;;;;;5080253;28;20047;-58
2021/10/19 06:17:07;;;;;;;1.00;0.63;;;;;;;;;;5076963;28;20024;-58
2021/10/19 06:19:32;;;;;;;2.60;0.50;;;;;;;;;;5081411;28;20024;-59
2021/10/19 06:21:58;;;;;;;5.53;1.67;;;;;;;;;;5078766;28;20424;-58
2021/10/19 06:24:23;;;;;;;1.58;0.95;;;;;;;;;;5079585;28;20111;-58
2021/10/19 06:26:49;;;;;;;1.58;0.60;;;;;;;;;;5063536;28;20031;-58
2021/10/19 06:29:14;;;;;;;0.77;0.70;;;;;;;;;;5080586;28;20281;-59
2021/10/19 06:31:41;;;;;;;2.75;0.90;;;;;;;;;;5076057;28;20032;-58
2021/10/19 06:34:07;;;;;;;1.48;0.77;;;;;;;;;;5077065;28;20036;-59
2021/10/19 06:36:33;;;;;;;2.22;0.95;;;;;;;;;;5078749;28;20118;-58
2021/10/19 06:38:59;;;;;;;1.55;0.90;;;;;;;;;;5081280;28;20115;-58
2021/10/19 06:41:25;;;;;;;1.27;0.90;;;;;;;;;;5078988;28;20039;-58
2021/10/19 06:43:50;;;;;;;1.92;0.93;;;;;;;;;;5072110;28;20023;-58
2021/10/19 06:46:16;;;;;;;1.10;1.00;;;;;;;;;;5074734;28;20093;-59
2021/10/19 06:48:42;;;;;;;1.65;1.15;;;;;;;;;;5078647;28;20039;-59
2021/10/19 06:51:07;;;;;;;2.90;1.20;;;;;;;;;;5076002;28;20024;-58
2021/10/19 06:53:33;;;;;;;2.90;0.98;;;;;;;;;;5061045;28;20081;-59
2021/10/19 06:55:59;;;;;;;0.98;0.90;;;;;;;;;;5071883;28;20029;-58
2021/10/19 06:58:25;;;;;;;4.82;1.05;;;;;;;;;;5078687;28;20415;-59
2021/10/19 07:00:52;;;;;;;3.05;1.08;;;;;;;;;;5070632;28;20021;-58
2021/10/19 07:03:18;;;;;;;1.17;0.50;;;;;;;;;;5058925;28;20487;-58
2021/10/19 07:05:44;;;;;;;0.77;0.40;;;;;;;;;;5070967;28;20134;-58
2021/10/19 07:08:09;;;;;;;0.98;0.50;;;;;;;;;;5054588;28;20190;-58
2021/10/19 07:10:36;;;;;;;2.65;0.47;;;;;;;;;;5075725;28;20036;-58
2021/10/19 07:13:02;;;;;;;2.65;0.52;;;;;;;;;;5072816;28;20060;-59
2021/10/19 07:15:34;;;;;;;0.77;0.30;;;;;;;;;;5072864;28;20481;-58
2021/10/19 07:18:00;;;;;;;3.03;0.30;;;;;;;;;;5073358;28;20032;-58
2021/10/19 07:20:25;;;;;;;0.80;0.30;;;;;;;;;;5077497;28;20036;-58
2021/10/19 07:22:51;;;;;;;2.88;0.20;;;;;;;;;;5076799;28;20105;-58
2021/10/19 07:25:16;;;;;;;0.70;0.28;;;;;;;;;;5076366;28;20032;-58
2021/10/19 07:27:44;;;;;;;1.00;0.40;;;;;;;;;;5066445;28;20093;-58
2021/10/19 07:30:09;;;;;;;0.45;0.30;;;;;;;;;;5075644;28;20044;-58
2021/10/19 07:32:35;;;;;;;0.20;0.20;;;;;;;;;;5082148;28;20584;-58
2021/10/19 07:35:01;;;;;;;0.20;0.20;;;;;;;;;;5072936;28;20028;-58
2021/10/19 07:37:26;;;;;;;1.00;0.22;;;;;;;;;;5069956;28;20043;-58
2021/10/19 07:39:52;;;;;;;0.25;0.20;;;;;;;;;;5074765;28;20460;-58
2021/10/19 07:42:17;;;;;;;2.05;1.10;;;;;;;;;;5070207;28;20475;-58
2021/10/19 07:44:43;;;;;;;0.88;0.77;;;;;;;;;;5073023;28;20056;-59
2021/10/19 07:47:09;;;;;;;0.32;0.28;;;;;;;;;;5075829;28;20020;-58
2021/10/19 07:49:34;;;;;;;0.32;0.30;;;;;;;;;;5083364;28;20038;-58
2021/10/19 07:52:00;;;;;;;0.20;0.20;;;;;;;;;;5082993;28;20080;-58
2021/10/19 07:54:25;;;;;;;0.32;0.20;;;;;;;;;;5074960;28;20925;-58
2021/10/19 07:56:51;;;;;;;0.10;0.10;;;;;;;;;;5073456;28;20028;-58
2021/10/19 07:59:16;;;;;;;1.38;0.20;;;;;;;;;;5072083;28;20032;-58
2021/10/19 08:01:42;;;;;;;0.22;0.20;;;;;;;;;;5076566;28;20595;-59
2021/10/19 08:04:08;;;;;;;1.02;0.40;;;;;;;;;;5078758;28;20028;-58
2021/10/19 08:06:33;;;;;;;0.85;0.40;;;;;;;;;;5075689;28;20055;-58
2021/10/19 08:09:00;;;;;;;3.80;0.32;;;;;;;;;;5066348;28;20037;-58
2021/10/19 08:11:26;;;;;;;0.30;0.30;;;;;;;;;;5062012;28;20020;-58
2021/10/19 08:13:54;;;;;;;0.50;0.50;;;;;;;;;;5070775;28;20032;-58
2021/10/19 08:16:19;;;;;;;1.48;0.30;;;;;;;;;;5075677;28;20020;-58
2021/10/19 08:18:45;;;;;;;0.45;0.30;;;;;;;;;;5053629;28;20028;-58
2021/10/19 08:21:10;;;;;;;0.32;0.28;;;;;;;;;;5075169;28;20115;-58
2021/10/19 08:23:36;;;;;;;0.20;0.20;;;;;;;;;;5072724;28;20517;-58
2021/10/19 08:26:01;;;;;;;1.20;0.40;;;;;;;;;;5072499;28;20036;-57
2021/10/19 08:28:31;;;;;;;1.95;0.43;;;;;;;;;;5076069;28;20040;-58
2021/10/19 08:30:58;;;;;;;2.05;0.20;;;;;;;;;;5083445;28;20040;-58
2021/10/19 08:33:23;;;;;;;0.43;0.20;;;;;;;;;;5074676;28;20523;-58
2021/10/19 08:35:49;;;;;;;2.10;0.28;;;;;;;;;;5069947;28;20124;-58
2021/10/19 08:38:15;;;;;;;0.52;0.30;;;;;;;;;;5077627;28;20038;-59
2021/10/19 08:40:41;;;;;;;1.17;0.30;;;;;;;;;;5051410;28;20043;-58
2021/10/19 08:43:08;;;;;;;1.20;0.40;;;;;;;;;;5069542;28;20131;-58
2021/10/19 08:45:34;;;;;;;1.70;0.75;;;;;;;;;;5076365;28;20143;-58
2021/10/19 08:48:02;;;;;;;3.65;0.90;;;;;;;;;;5074565;28;20036;-58
2021/10/19 08:50:29;;;;;;;1.73;1.20;;;;;;;;;;5057354;28;20043;-58
2021/10/19 08:52:55;;;;;;;1.52;0.77;;;;;;;;;;5070843;28;20027;-58
2021/10/19 08:55:21;;;;;;;4.05;0.80;;;;;;;;;;5081371;28;20024;-58
2021/10/19 08:57:47;;;;;;;10.55;0.70;;;;;;;;;;5075171;28;20028;-58
2021/10/19 09:00:14;;;;;;;6.95;2.88;;;;;;;;;;5074292;28;20611;-58
2021/10/19 09:02:43;;;;;;;2.58;0.90;;;;;;;;;;5079716;28;20032;-57
2021/10/19 09:05:15;;;;;;;1.50;0.77;;;;;;;;;;5068963;28;20033;-58
2021/10/19 09:08:14;;;;;;;2.15;0.50;;;;;;;;;;5072572;28;20030;-58
2021/10/19 09:10:41;;;;;;;1.77;0.55;;;;;;;;;;5074411;28;20052;-58
2021/10/19 09:13:11;;;;;;;1.40;0.40;;;;;;;;;;5072613;28;20359;-58
2021/10/19 09:15:43;;;;;;;0.50;0.22;;;;;;;;;;5072967;28;20035;-58
2021/10/19 09:18:20;;;;;;;1.35;0.40;;;;;;;;;;5078567;28;20040;-58
2021/10/19 09:20:52;;;;;;;0.20;0.20;;;;;;;;;;5068915;28;20040;-58
2021/10/19 09:23:21;;;;;;;0.10;0.10;;;;;;;;;;5074244;28;20509;-58
2021/10/19 09:25:48;;;;;;;0.10;0.10;;;;;;;;;;5077539;28;20036;-58
2021/10/19 09:28:17;;;;;;;0.10;0.10;;;;;;;;;;5078141;28;20031;-58
2021/10/19 09:30:50;;;;;;;1.90;0.17;;;;;;;;;;5079220;28;20107;-57
2021/10/19 09:33:20;;;;;;;0.10;0.10;;;;;;;;;;5075344;28;20067;-58
2021/10/19 09:35:51;;;;;;;0.30;0.10;;;;;;;;;;5080078;28;20024;-58
2021/10/19 09:38:18;;;;;;;0.35;0.10;;;;;;;;;;5078643;28;20543;-58
2021/10/19 09:40:50;;;;;;;1.85;0.30;;;;;;;;;;5077280;28;20109;-58
2021/10/19 09:43:16;;;;;;;;;;;;;;;;;;5083738;28;20025;-58
2021/10/19 09:45:45;;;;;;;1.50;0.10;;;;;;;;;;5076915;28;19920;-57
2021/10/19 09:48:16;;;;;;;0.10;0.10;;;;;;;;;;5076794;28;20535;-57
2021/10/19 09:50:43;;;;;;;0.10;0.10;;;;;;;;;;5076290;28;20038;-57
2021/10/19 09:53:14;;;;;;;0.32;0.10;;;;;;;;;;5073724;28;20032;-58
2021/10/19 09:55:41;;;;;;;0.75;0.10;;;;;;;;;;5076113;28;20020;-58
2021/10/19 09:58:07;;;;;;;1.25;0.20;;;;;;;;;;5081696;28;20176;-58
2021/10/19 10:00:33;;;;;;;0.15;0.10;;;;;;;;;;5078420;28;20107;-57
2021/10/19 10:03:03;;;;;;;3.40;0.30;;;;;;;;;;5075325;28;20040;-58
2021/10/19 10:05:30;;;;;;;0.55;0.20;;;;;;;;;;5078860;28;20544;-58
2021/10/19 10:07:56;;;;;;;0.63;0.17;;;;;;;;;;5076829;28;20036;-58
2021/10/19 10:10:23;;;;;;;2.00;0.20;;;;;;;;;;5079674;28;20031;-58
2021/10/19 10:13:02;;;;;;;0.20;0.10;;;;;;;;;;5083046;28;20135;-58
2021/10/19 10:15:34;;;;;;;1.95;0.20;;;;;;;;;;5082838;28;20498;-58
2021/10/19 10:18:08;;;;;;;0.38;0.10;;;;;;;;;;5074895;28;20028;-58
2021/10/19 10:20:38;;;;;;;0.80;0.30;;;;;;;;;;5078542;28;20063;-58
2021/10/19 10:23:23;;;;;;;1.17;0.10;;;;;;;;;;5077733;28;20028;-58
2021/10/19 10:25:51;;;;;;;1.50;0.20;;;;;;;;;;5071218;28;20398;-58
2021/10/19 10:28:34;;;;;;;0.20;0.20;;;;;;;;;;5077454;28;20040;-59
2021/10/19 10:31:04;;;;;;;0.55;0.10;;;;;;;;;;5076481;28;20020;-58
2021/10/19 10:33:37;;;;;;;0.80;0.10;;;;;;;;;;5074480;28;20025;-58
2021/10/19 10:36:06;;;;;;;0.82;0.20;;;;;;;;;;5082731;28;20028;-58
2021/10/19 10:38:32;;;;;;;0.63;0.20;;;;;;;;;;5077635;28;20028;-58
2021/10/19 10:41:12;;;;;;;1.15;0.10;;;;;;;;;;5079147;28;20385;-58
2021/10/19 10:43:38;;;;;;;0.65;0.20;;;;;;;;;;5074494;28;20053;-58
2021/10/19 10:46:04;;;;;;;2.45;0.22;;;;;;;;;;5079657;28;20084;-58
2021/10/19 10:48:30;;;;;;;0.35;0.20;;;;;;;;;;5075062;28;20057;-58
2021/10/19 10:50:56;;;;;;;0.90;0.20;;;;;;;;;;5074292;28;20090;-58
2021/10/19 10:53:21;;;;;;;0.30;0.22;;;;;;;;;;5084343;28;20110;-59
2021/10/19 10:55:52;;;;;;;0.95;0.20;;;;;;;;;;5080150;28;20035;-59
2021/10/19 10:58:25;;;;;;;0.65;0.10;;;;;;;;;;5076981;28;20031;-59
2021/10/19 11:00:51;;;;;;;1.33;0.30;;;;;;;;;;5077927;28;20135;-58
2021/10/19 11:03:18;;;;;;;2.58;0.50;;;;;;;;;;5069441;28;20294;-59
2021/10/19 11:05:54;;;;;;;1.02;0.20;;;;;;;;;;5083065;28;20677;-59
2021/10/19 11:08:26;;;;;;;1.60;0.30;;;;;;;;;;5078391;28;20023;-59
2021/10/19 11:11:11;;;;;;;1.75;0.30;;;;;;;;;;5072774;28;20035;-59
2021/10/19 11:13:54;;;;;;;2.28;0.20;;;;;;;;;;5085609;28;20024;-59
2021/10/19 11:16:32;;;;;;;0.65;0.22;;;;;;;;;;5071256;28;20286;-59
2021/10/19 11:19:04;;;;;;;1.23;0.20;;;;;;;;;;5077496;28;20624;-59
2021/10/19 11:21:31;;;;;;;1.08;0.30;;;;;;;;;;5081211;28;20067;-59
2021/10/19 11:23:57;;;;;;;0.65;0.35;;;;;;;;;;5076176;28;20027;-59
2021/10/19 11:26:23;;;;;;;0.98;0.20;;;;;;;;;;5075512;28;20360;-58
2021/10/19 11:28:48;;;;;;;1.27;0.30;;;;;;;;;;5079095;28;20407;-58
2021/10/19 11:31:15;;;;;;;0.30;0.20;;;;;;;;;;5079595;28;20020;-56
2021/10/19 11:33:44;;;;;;;2.28;0.43;;;;;;;;;;5080355;28;20391;-57
2021/10/19 11:36:13;;;;;;;0.75;0.32;;;;;;;;;;5080465;28;20483;-57
2021/10/19 11:38:41;;;;;;;0.52;0.25;;;;;;;;;;5076852;28;20047;-57
2021/10/19 11:41:09;;;;;;;4.97;0.30;;;;;;;;;;5081741;28;20036;-57
2021/10/19 11:43:41;;;;;;;1.17;0.30;;;;;;;;;;5079751;28;20111;-57
2021/10/19 11:46:09;;;;;;;0.77;0.20;;;;;;;;;;5081508;28;20058;-57
2021/10/19 11:48:36;;;;;;;1.80;0.20;;;;;;;;;;5088304;28;20114;-57
2021/10/19 11:51:02;;;;;;;1.23;0.20;;;;;;;;;;5066463;28;20074;-57
2021/10/19 11:53:29;;;;;;;1.27;0.47;;;;;;;;;;5076308;28;20033;-58
2021/10/19 11:55:55;;;;;;;1.15;0.30;;;;;;;;;;5079094;28;20115;-58
2021/10/19 11:58:23;;;;;;;1.00;0.20;;;;;;;;;;5077370;28;20467;-57
2021/10/19 12:00:52;;;;;;;0.90;0.32;;;;;;;;;;5074248;28;20025;-59
2021/10/19 12:03:18;;;;;;;1.20;0.40;;;;;;;;;;5072128;28;20825;-58
2021/10/19 12:05:44;;;;;;;2.85;0.30;;;;;;;;;;5082307;28;20043;-59
2021/10/19 12:08:11;;;;;;;1.08;0.40;;;;;;;;;;5073714;28;20024;-58
2021/10/19 12:10:37;;;;;;;1.60;0.40;;;;;;;;;;5075977;28;20058;-58
2021/10/19 12:13:05;;;;;;;2.10;0.25;;;;;;;;;;5071490;28;20032;-56
2021/10/19 12:15:33;;;;;;;1.85;0.32;;;;;;;;;;5080718;28;20024;-58
2021/10/19 12:18:15;;;;;;;6.63;0.60;;;;;;;;;;5078815;28;20550;-58
2021/10/19 12:20:41;;;;;;;2.28;0.50;;;;;;;;;;5071622;28;20032;-58
2021/10/19 12:23:09;;;;;;;2.80;0.50;;;;;;;;;;5078779;28;20032;-58
2021/10/19 12:25:45;;;;;;;0.95;0.45;;;;;;;;;;5071792;28;20085;-58
2021/10/19 12:28:28;;;;;;;1.98;0.47;;;;;;;;;;5080515;28;20312;-58
2021/10/19 12:30:56;;;;;;;3.03;0.50;;;;;;;;;;5079253;28;20486;-58
2021/10/19 12:33:27;;;;;;;4.28;0.60;;;;;;;;;;5074881;28;20028;-58
2021/10/19 12:36:00;;;;;;;2.05;0.45;;;;;;;;;;5080472;28;20019;-58
2021/10/19 12:38:45;;;;;;;1.52;0.60;;;;;;;;;;5080995;28;20419;-58
2021/10/19 12:41:14;;;;;;;3.60;1.10;;;;;;;;;;5078362;28;20032;-58
2021/10/19 12:43:41;;;;;;;1.10;0.25;;;;;;;;;;5076745;28;20020;-58
2021/10/19 12:46:08;;;;;;;4.15;0.68;;;;;;;;;;5076182;28;20506;-58
2021/10/19 12:48:37;;;;;;;2.38;0.60;;;;;;;;;;5079779;28;20379;-58
2021/10/19 12:51:09;;;;;;;2.42;0.50;;;;;;;;;;5073730;28;20055;-59
2021/10/19 12:53:35;;;;;;;2.42;0.47;;;;;;;;;;5056046;28;20387;-58
2021/10/19 12:56:01;;;;;;;1.05;0.38;;;;;;;;;;5072342;28;20097;-59
2021/10/19 12:58:31;;;;;;;0.65;0.30;;;;;;;;;;5074902;28;20028;-58
2021/10/19 13:00:57;;;;;;;2.75;1.10;;;;;;;;;;5076220;28;20028;-58
2021/10/19 13:03:23;;;;;;;1.65;0.32;;;;;;;;;;5078944;28;20020;-59
2021/10/19 13:05:49;;;;;;;5.22;0.65;;;;;;;;;;5071378;28;20033;-59
2021/10/19 13:08:14;;;;;;;2.25;0.20;;;;;;;;;;5073460;28;20040;-58
2021/10/19 13:10:40;;;;;;;2.08;0.55;;;;;;;;;;5075360;28;20028;-58
2021/10/19 13:13:05;;;;;;;1.42;0.50;;;;;;;;;;5075212;28;20095;-57
2021/10/19 13:15:31;;;;;;;5.80;0.70;;;;;;;;;;5057120;28;20028;-58
2021/10/19 13:17:56;;;;;;;2.15;0.60;;;;;;;;;;5055633;28;20032;-58
2021/10/19 13:20:22;;;;;;;5.28;0.45;;;;;;;;;;5076289;28;20035;-58
2021/10/19 13:22:47;;;;;;;4.47;0.60;;;;;;;;;;5076695;28;20483;-58
2021/10/19 13:25:13;;;;;;;6.75;0.82;;;;;;;;;;5070726;28;20081;-59
2021/10/19 13:27:39;;;;;;;4.30;0.82;;;;;;;;;;5078028;28;20031;-58
2021/10/19 13:30:06;;;;;;;4.78;0.60;;;;;;;;;;5073771;28;20655;-58
2021/10/19 13:32:32;;;;;;;7.75;0.98;;;;;;;;;;5075476;28;20034;-58
2021/10/19 13:34:57;;;;;;;2.63;0.50;;;;;;;;;;5076897;28;20028;-57
2021/10/19 13:37:23;;;;;;;12.90;2.63;;;;;;;;;;5050338;28;20085;-58
2021/10/19 13:39:50;;;;;;;5.00;0.80;;;;;;;;;;5055333;28;20056;-58
2021/10/19 13:42:17;;;;;;;6.65;1.25;;;;;;;;;;5070873;28;20074;-57
2021/10/19 13:44:42;;;;;;;4.40;0.63;;;;;;;;;;5072029;28;20111;-57
2021/10/19 13:47:08;;;;;;;8.57;1.17;;;;;;;;;;5067494;28;20167;-57
2021/10/19 13:49:34;;;;;;;8.55;0.50;;;;;;;;;;5078347;28;20032;-57
2021/10/19 13:51:59;;;;;;;5.78;0.70;;;;;;;;;;5071545;28;20035;-57
2021/10/19 13:54:27;;;;;;;5.15;0.90;;;;;;;;;;5074101;28;20039;-57
2021/10/19 13:56:53;;;;;;;3.72;0.75;;;;;;;;;;5082870;28;20027;-58
2021/10/19 13:59:18;;;;;;;6.63;0.60;;;;;;;;;;5077844;28;20043;-58
2021/10/19 14:01:44;;;;;;;4.40;0.70;;;;;;;;;;5072660;28;20453;-57
2021/10/19 14:04:09;;;;;;;3.97;0.40;;;;;;;;;;5070251;28;20029;-57
2021/10/19 14:06:35;;;;;;;6.15;0.75;;;;;;;;;;5072089;28;20123;-59
2021/10/19 14:09:03;;;;;;;4.20;0.70;;;;;;;;;;5071845;28;20034;-58
2021/10/19 14:11:28;;;;;;;5.03;0.65;;;;;;;;;;5073735;28;20031;-58
2021/10/19 14:13:54;;;;;;;12.52;0.93;;;;;;;;;;5075384;28;20028;-58
2021/10/19 14:16:24;;;;;;;5.30;0.70;;;;;;;;;;5075695;28;20040;-58
2021/10/19 14:18:51;;;;;;;8.75;0.90;;;;;;;;;;5076776;28;20391;-58
2021/10/19 14:21:17;;;;;;;5.30;1.30;;;;;;;;;;5080818;28;20514;-58
2021/10/19 14:23:43;;;;;;;6.78;0.75;;;;;;;;;;5057788;28;20028;-58
2021/10/19 14:26:08;;;;;;;4.53;0.68;;;;;;;;;;5074005;28;20042;-59
2021/10/19 14:28:34;;;;;;;4.15;0.60;;;;;;;;;;5077653;28;20146;-58
2021/10/19 14:31:00;;;;;;;8.05;0.93;;;;;;;;;;5073921;28;20240;-58
2021/10/19 14:33:25;;;;;;;5.22;0.80;;;;;;;;;;5078787;28;20042;-58
2021/10/19 14:35:51;;;;;;;5.20;0.68;;;;;;;;;;5078207;28;20127;-58
2021/10/19 14:38:16;;;;;;;3.97;0.75;;;;;;;;;;5076440;28;20034;-58